地図

経路データ

SID SEASON NUMBER BASIN SUBBASIN NAME ISO_TIME NATURE LAT LON WMO_WIND WMO_PRES WMO_AGENCY TRACK_TYPE DIST2LAND LANDFALL IFLAG USA_AGENCY USA_ATCF_ID USA_LAT USA_LON USA_RECORD USA_STATUS USA_WIND USA_PRES USA_SSHS USA_R34_NE USA_R34_SE USA_R34_SW USA_R34_NW USA_R50_NE USA_R50_SE USA_R50_SW USA_R50_NW USA_R64_NE USA_R64_SE USA_R64_SW USA_R64_NW USA_POCI USA_ROCI USA_RMW USA_EYE TOKYO_LAT TOKYO_LON TOKYO_GRADE TOKYO_WIND TOKYO_PRES TOKYO_R50_DIR TOKYO_R50_LONG TOKYO_R50_SHORT TOKYO_R30_DIR TOKYO_R30_LONG TOKYO_R30_SHORT TOKYO_LAND CMA_LAT CMA_LON CMA_CAT CMA_WIND CMA_PRES HKO_LAT HKO_LON HKO_CAT HKO_WIND HKO_PRES NEWDELHI_LAT NEWDELHI_LON NEWDELHI_GRADE NEWDELHI_WIND NEWDELHI_PRES NEWDELHI_CI NEWDELHI_DP NEWDELHI_POCI REUNION_LAT REUNION_LON REUNION_TYPE REUNION_WIND REUNION_PRES REUNION_TNUM REUNION_CI REUNION_RMW REUNION_R34_NE REUNION_R34_SE REUNION_R34_SW REUNION_R34_NW REUNION_R50_NE REUNION_R50_SE REUNION_R50_SW REUNION_R50_NW REUNION_R64_NE REUNION_R64_SE REUNION_R64_SW REUNION_R64_NW BOM_LAT BOM_LON BOM_TYPE BOM_WIND BOM_PRES BOM_TNUM BOM_CI BOM_RMW BOM_R34_NE BOM_R34_SE BOM_R34_SW BOM_R34_NW BOM_R50_NE BOM_R50_SE BOM_R50_SW BOM_R50_NW BOM_R64_NE BOM_R64_SE BOM_R64_SW BOM_R64_NW BOM_ROCI BOM_POCI BOM_EYE BOM_POS_METHOD BOM_PRES_METHOD NADI_LAT NADI_LON NADI_CAT NADI_WIND NADI_PRES WELLINGTON_LAT WELLINGTON_LON WELLINGTON_WIND WELLINGTON_PRES DS824_LAT DS824_LON DS824_STAGE DS824_WIND DS824_PRES TD9636_LAT TD9636_LON TD9636_STAGE TD9636_WIND TD9636_PRES TD9635_LAT TD9635_LON TD9635_WIND TD9635_PRES TD9635_ROCI NEUMANN_LAT NEUMANN_LON NEUMANN_CLASS NEUMANN_WIND NEUMANN_PRES MLC_LAT MLC_LON MLC_CLASS MLC_WIND MLC_PRES USA_GUST BOM_GUST BOM_GUST_PER REUNION_GUST REUNION_GUST_PER USA_SEAHGT USA_SEARAD_NE USA_SEARAD_SE USA_SEARAD_SW USA_SEARAD_NW STORM_SPEED STORM_DIR
1958223N12340 1958 65 NA NA CLEO 1958-08-11 06:00:00 TS 12.0000 -20.5000 25 hurdat_atl main 404 404 O_____________ hurdat_atl AL031958 12.0000 -20.5000 TD 25 -1 24 270
1958223N12340 1958 65 NA NA CLEO 1958-08-11 09:00:00 TS 12.0010 -21.7451 main 534 534 P_____________ AL031958 12.0010 -21.7451 TD 25 -1 24 270
1958223N12340 1958 65 NA NA CLEO 1958-08-11 12:00:00 TS 12.0000 -23.0000 25 hurdat_atl main 667 667 O_____________ hurdat_atl AL031958 12.0000 -23.0000 TD 25 -1 25 270
1958223N12340 1958 65 NA NA CLEO 1958-08-11 15:00:00 TS 11.9996 -24.2650 main 795 795 P_____________ AL031958 11.9996 -24.2650 TD 27 -1 24 270
1958223N12340 1958 65 NA NA CLEO 1958-08-11 18:00:00 TS 12.0000 -25.5000 30 hurdat_atl main 917 917 O_____________ hurdat_atl AL031958 12.0000 -25.5000 TD 30 -1 24 270
1958223N12340 1958 65 NA NA CLEO 1958-08-11 21:00:00 TS 11.9996 -26.6874 main 1040 1040 P_____________ AL031958 11.9996 -26.6874 TD 30 -1 23 270
1958223N12340 1958 65 NA NA CLEO 1958-08-12 00:00:00 TS 12.0000 -27.8000 30 hurdat_atl main 1155 1155 O_____________ hurdat_atl AL031958 12.0000 -27.8000 TD 30 -1 21 270
1958223N12340 1958 65 NA NA CLEO 1958-08-12 03:00:00 TS 11.9994 -28.8225 main 1259 1259 P_____________ AL031958 11.9994 -28.8225 TD 32 -1 20 270
1958223N12340 1958 65 NA NA CLEO 1958-08-12 06:00:00 TS 12.0000 -29.8000 35 hurdat_atl main 1365 1365 O_____________ hurdat_atl AL031958 12.0000 -29.8000 TS 35 0 19 270
1958223N12340 1958 65 NA NA CLEO 1958-08-12 09:00:00 TS 11.9996 -30.8000 main 1470 1470 P_____________ AL031958 11.9996 -30.8000 TS 37 0 20 270
1958223N12340 1958 65 NA NA CLEO 1958-08-12 12:00:00 TS 12.0000 -31.8000 40 hurdat_atl main 1576 1576 O_____________ hurdat_atl AL031958 12.0000 -31.8000 TS 40 0 20 270
1958223N12340 1958 65 NA NA CLEO 1958-08-12 15:00:00 TS 11.9996 -32.8000 main 1683 1683 P_____________ AL031958 11.9996 -32.8000 TS 45 0 20 270
1958223N12340 1958 65 NA NA CLEO 1958-08-12 18:00:00 TS 12.0000 -33.8000 50 hurdat_atl main 1789 1762 O_____________ hurdat_atl AL031958 12.0000 -33.8000 TS 50 0 20 270
1958223N12340 1958 65 NA NA CLEO 1958-08-12 21:00:00 TS 11.9846 -34.8002 main 1758 1729 P_____________ AL031958 11.9846 -34.8002 TS 57 0 20 270
1958223N12340 1958 65 NA NA CLEO 1958-08-13 00:00:00 TS 12.0000 -35.8000 65 hurdat_atl main 1727 1711 O_____________ hurdat_atl AL031958 12.0000 -35.8000 HU 65 1 20 273
1958223N12340 1958 65 NA NA CLEO 1958-08-13 03:00:00 TS 12.0848 -36.8149 main 1713 1701 P_____________ AL031958 12.0848 -36.8149 HU 72 1 20 276
1958223N12340 1958 65 NA NA CLEO 1958-08-13 06:00:00 TS 12.2000 -37.8000 80 hurdat_atl main 1706 1650 O_____________ hurdat_atl AL031958 12.2000 -37.8000 HU 80 1 19 276
1958223N12340 1958 65 NA NA CLEO 1958-08-13 09:00:00 TS 12.2922 -38.7301 main 1650 1574 P_____________ AL031958 12.2922 -38.7301 HU 82 1 18 276
1958223N12340 1958 65 NA NA CLEO 1958-08-13 12:00:00 TS 12.4000 -39.6000 85 hurdat_atl main 1574 1510 O_____________ hurdat_atl AL031958 12.4000 -39.6000 HU 85 2 17 278
1958223N12340 1958 65 NA NA CLEO 1958-08-13 15:00:00 TS 12.5347 -40.4226 main 1510 1455 P_____________ AL031958 12.5347 -40.4226 HU 85 2 16 281
1958223N12340 1958 65 NA NA CLEO 1958-08-13 18:00:00 TS 12.7000 -41.2000 85 hurdat_atl main 1455 1412 O_____________ hurdat_atl AL031958 12.7000 -41.2000 HU 85 2 15 283
1958223N12340 1958 65 NA NA CLEO 1958-08-13 21:00:00 TS 12.8922 -41.9576 main 1404 1365 P_____________ AL031958 12.8922 -41.9576 HU 87 2 15 285
1958223N12340 1958 65 NA NA CLEO 1958-08-14 00:00:00 TS 13.1000 -42.7000 90 hurdat_atl main 1365 1329 O_____________ hurdat_atl AL031958 13.1000 -42.7000 HU 90 2 15 285
1958223N12340 1958 65 NA NA CLEO 1958-08-14 03:00:00 TS 13.2923 -43.4502 main 1323 1292 P_____________ AL031958 13.2923 -43.4502 HU 92 2 15 285
1958223N12340 1958 65 NA NA CLEO 1958-08-14 06:00:00 TS 13.5000 -44.2000 95 hurdat_atl main 1292 1265 O_____________ hurdat_atl AL031958 13.5000 -44.2000 HU 95 2 15 287
1958223N12340 1958 65 NA NA CLEO 1958-08-14 09:00:00 TS 13.7348 -44.9576 main 1259 1242 P_____________ AL031958 13.7348 -44.9576 HU 97 3 15 289
1958223N12340 1958 65 NA NA CLEO 1958-08-14 12:00:00 TS 14.0000 -45.7000 100 hurdat_atl main 1242 1221 O_____________ hurdat_atl AL031958 14.0000 -45.7000 HU 100 3 15 291
1958223N12340 1958 65 NA NA CLEO 1958-08-14 15:00:00 TS 14.2924 -46.4226 main 1224 1208 P_____________ AL031958 14.2924 -46.4226 HU 100 3 15 294
1958223N12340 1958 65 NA NA CLEO 1958-08-14 18:00:00 TS 14.6000 -47.1000 100 960 hurdat_atl main 1212 1201 O_____________ hurdat_atl AL031958 14.6000 -47.1000 HU 100 960 3 14 295
1958223N12340 1958 65 NA NA CLEO 1958-08-14 21:00:00 TS 14.8925 -47.7526 main 1206 1201 P_____________ AL031958 14.8925 -47.7526 HU 102 3 13 297
1958223N12340 1958 65 NA NA CLEO 1958-08-15 00:00:00 TS 15.2000 -48.3000 105 hurdat_atl main 1213 1208 O_____________ hurdat_atl AL031958 15.2000 -48.3000 HU 105 3 11 305
1958223N12340 1958 65 NA NA CLEO 1958-08-15 03:00:00 TS 15.5348 -48.7101 main 1227 1227 P_____________ AL031958 15.5348 -48.7101 HU 107 3 10 316
1958223N12340 1958 65 NA NA CLEO 1958-08-15 06:00:00 TS 15.9000 -49.0000 110 hurdat_atl main 1255 1255 O_____________ hurdat_atl AL031958 15.9000 -49.0000 HU 110 3 9 325
1958223N12340 1958 65 NA NA CLEO 1958-08-15 09:00:00 TS 16.2474 -49.2377 main 1275 1275 P_____________ AL031958 16.2474 -49.2377 HU 112 3 9 334
1958223N12340 1958 65 NA NA CLEO 1958-08-15 12:00:00 TS 16.7000 -49.4000 115 951 hurdat_atl main 1317 1317 O_____________ hurdat_atl AL031958 16.7000 -49.4000 HU 115 951 4 11 347
1958223N12340 1958 65 NA NA CLEO 1958-08-15 15:00:00 TS 17.3325 -49.5078 main 1375 1375 P_____________ AL031958 17.3325 -49.5078 HU 117 949 4 14 352
1958223N12340 1958 65 NA NA CLEO 1958-08-15 18:00:00 TS 18.1000 -49.6000 120 947 hurdat_atl main 1454 1454 O_____________ hurdat_atl AL031958 18.1000 -49.6000 HU 120 947 4 16 353
1958223N12340 1958 65 NA NA CLEO 1958-08-15 21:00:00 TS 18.9425 -49.7277 main 1521 1521 P_____________ AL031958 18.9425 -49.7277 HU 117 950 4 17 351
1958223N12340 1958 65 NA NA CLEO 1958-08-16 00:00:00 TS 19.8000 -49.9000 115 953 hurdat_atl main 1566 1566 O_____________ hurdat_atl AL031958 19.8000 -49.9000 HU 115 953 4 17 347
1958223N12340 1958 65 NA NA CLEO 1958-08-16 03:00:00 TS 20.5725 -50.1277 main 1608 1608 P_____________ AL031958 20.5725 -50.1277 HU 115 954 4 16 343
1958223N12340 1958 65 NA NA CLEO 1958-08-16 06:00:00 TS 21.3000 -50.4000 115 956 hurdat_atl main 1621 1602 O_____________ hurdat_atl AL031958 21.3000 -50.4000 HU 115 956 4 15 340
1958223N12340 1958 65 NA NA CLEO 1958-08-16 09:00:00 TS 22.0075 -50.6927 main 1605 1590 P_____________ AL031958 22.0075 -50.6927 HU 112 955 3 15 338
1958223N12340 1958 65 NA NA CLEO 1958-08-16 12:00:00 TS 22.7000 -51.0000 110 954 hurdat_atl main 1593 1582 O_____________ hurdat_atl AL031958 22.7000 -51.0000 HU 110 954 3 15 339
1958223N12340 1958 65 NA NA CLEO 1958-08-16 15:00:00 TS 23.4073 -51.2855 main 1585 1579 P_____________ AL031958 23.4073 -51.2855 HU 105 3 15 339
1958223N12340 1958 65 NA NA CLEO 1958-08-16 18:00:00 TS 24.1000 -51.6000 100 hurdat_atl main 1583 1576 O_____________ hurdat_atl AL031958 24.1000 -51.6000 HU 100 3 15 335
1958223N12340 1958 65 NA NA CLEO 1958-08-16 21:00:00 TS 24.7574 -51.9705 main 1575 1567 P_____________ AL031958 24.7574 -51.9705 HU 97 3 15 331
1958223N12340 1958 65 NA NA CLEO 1958-08-17 00:00:00 TS 25.4000 -52.4000 95 hurdat_atl main 1568 1557 O_____________ hurdat_atl AL031958 25.4000 -52.4000 HU 95 2 15 327
1958223N12340 1958 65 NA NA CLEO 1958-08-17 03:00:00 TS 26.0425 -52.8854 main 1557 1552 P_____________ AL031958 26.0425 -52.8854 HU 92 2 16 325
1958223N12340 1958 65 NA NA CLEO 1958-08-17 06:00:00 TS 26.7000 -53.4000 90 959 hurdat_atl main 1557 1551 O_____________ hurdat_atl AL031958 26.7000 -53.4000 HU 90 959 2 16 326
1958223N12340 1958 65 NA NA CLEO 1958-08-17 09:00:00 TS 27.3999 -53.9078 main 1562 1560 P_____________ AL031958 27.3999 -53.9078 HU 87 962 2 17 328
1958223N12340 1958 65 NA NA CLEO 1958-08-17 12:00:00 TS 28.1000 -54.4000 85 965 hurdat_atl main 1574 1574 O_____________ hurdat_atl AL031958 28.1000 -54.4000 HU 85 965 2 16 328
1958223N12340 1958 65 NA NA CLEO 1958-08-17 15:00:00 TS 28.7650 -54.8803 main 1591 1591 P_____________ AL031958 28.7650 -54.8803 HU 85 966 2 15 329
1958223N12340 1958 65 NA NA CLEO 1958-08-17 18:00:00 TS 29.4000 -55.3000 85 968 hurdat_atl main 1612 1612 O_____________ hurdat_atl AL031958 29.4000 -55.3000 HU 85 968 2 14 332
1958223N12340 1958 65 NA NA CLEO 1958-08-17 21:00:00 TS 30.0073 -55.6307 main 1643 1643 P_____________ AL031958 30.0073 -55.6307 HU 85 2 13 337
1958223N12340 1958 65 NA NA CLEO 1958-08-18 00:00:00 TS 30.6000 -55.9000 85 hurdat_atl main 1657 1585 O_____________ hurdat_atl AL031958 30.6000 -55.9000 HU 85 2 13 338
1958223N12340 1958 65 NA NA CLEO 1958-08-18 03:00:00 TS 31.1925 -56.1874 main 1585 1517 P_____________ AL031958 31.1925 -56.1874 HU 82 1 13 340
1958223N12340 1958 65 NA NA CLEO 1958-08-18 06:00:00 TS 31.8000 -56.4000 80 hurdat_atl main 1517 1454 O_____________ hurdat_atl AL031958 31.8000 -56.4000 HU 80 1 13 348
1958223N12340 1958 65 NA NA CLEO 1958-08-18 09:00:00 TS 32.4424 -56.5100 main 1454 1386 P_____________ AL031958 32.4424 -56.5100 HU 80 1 13 356
1958223N12340 1958 65 NA NA CLEO 1958-08-18 12:00:00 TS 33.1000 -56.5000 80 973 hurdat_atl main 1386 1334 O_____________ hurdat_atl AL031958 33.1000 -56.5000 HU 80 973 1 13 4
1958223N12340 1958 65 NA NA CLEO 1958-08-18 15:00:00 TS 33.7425 -56.3950 main 1334 1271 P_____________ AL031958 33.7425 -56.3950 HU 80 972 1 13 11
1958223N12340 1958 65 NA NA CLEO 1958-08-18 18:00:00 TS 34.4000 -56.2000 80 972 hurdat_atl main 1271 1214 O_____________ hurdat_atl AL031958 34.4000 -56.2000 HU 80 972 1 14 14
1958223N12340 1958 65 NA NA CLEO 1958-08-18 21:00:00 TS 35.0624 -55.9865 main 1203 1140 P_____________ AL031958 35.0624 -55.9865 HU 80 1 15 16
1958223N12340 1958 65 NA NA CLEO 1958-08-19 00:00:00 TS 35.8000 -55.7000 80 hurdat_atl main 1140 1065 O_____________ hurdat_atl AL031958 35.8000 -55.7000 HU 80 1 16 16
1958223N12340 1958 65 NA NA CLEO 1958-08-19 03:00:00 TS 36.6305 -55.4438 main 1068 994 P_____________ AL031958 36.6305 -55.4438 HU 82 1 19 20
1958223N12340 1958 65 NA NA CLEO 1958-08-19 06:00:00 TS 37.6000 -54.9000 85 hurdat_atl main 989 889 O_____________ hurdat_atl AL031958 37.6000 -54.9000 HU 85 2 25 33
1958223N12340 1958 65 NA NA CLEO 1958-08-19 09:00:00 TS 38.6995 -53.7793 main 878 757 P_____________ AL031958 38.6995 -53.7793 HU 85 2 30 40
1958223N12340 1958 65 NA NA CLEO 1958-08-19 12:00:00 TS 39.9000 -52.4000 85 973 hurdat_atl main 747 631 O_____________ hurdat_atl AL031958 39.9000 -52.4000 HU 85 973 2 32 39
1958223N12340 1958 65 NA NA CLEO 1958-08-19 15:00:00 TS 41.1405 -51.1677 main 631 540 P_____________ AL031958 41.1405 -51.1677 HU 82 976 1 31 37
1958223N12340 1958 65 NA NA CLEO 1958-08-19 18:00:00 TS 42.4000 -49.9000 80 980 hurdat_atl main 534 489 O_____________ hurdat_atl AL031958 42.4000 -49.9000 HU 80 980 1 32 38
1958223N12340 1958 65 NA NA CLEO 1958-08-19 21:00:00 TS 43.6501 -48.5566 main 482 482 P_____________ AL031958 43.6501 -48.5566 HU 77 1 31 40
1958223N12340 1958 65 NA NA CLEO 1958-08-20 00:00:00 ET 44.8000 -47.1000 75 hurdat_atl main 506 506 O_____________ hurdat_atl AL031958 44.8000 -47.1000 EX 75 -4 31 44
1958223N12340 1958 65 NA NA CLEO 1958-08-20 03:00:00 ET 45.8472 -45.5267 main 571 571 P_____________ AL031958 45.8472 -45.5267 EX 70 -4 29 52
1958223N12340 1958 65 NA NA CLEO 1958-08-20 06:00:00 ET 46.6000 -43.8000 65 hurdat_atl main 670 670 O_____________ hurdat_atl AL031958 46.6000 -43.8000 EX 65 -4 27 66
1958223N12340 1958 65 NA NA CLEO 1958-08-20 09:00:00 ET 46.9344 -41.9074 main 807 807 P_____________ AL031958 46.9344 -41.9074 EX 62 -4 26 81
1958223N12340 1958 65 NA NA CLEO 1958-08-20 12:00:00 ET 47.0000 -40.0000 60 hurdat_atl main 947 947 O_____________ hurdat_atl AL031958 47.0000 -40.0000 EX 60 -4 25 87
1958223N12340 1958 65 NA NA CLEO 1958-08-20 15:00:00 ET 47.0786 -38.2296 main 1080 1080 P_____________ AL031958 47.0786 -38.2296 EX 57 -4 24 90
1958223N12340 1958 65 NA NA CLEO 1958-08-20 18:00:00 ET 47.0000 -36.5000 55 hurdat_atl main 1209 1209 O_____________ hurdat_atl AL031958 47.0000 -36.5000 EX 55 -4 24 98
1958223N12340 1958 65 NA NA CLEO 1958-08-20 21:00:00 ET 46.7296 -34.7499 main 1348 1348 P_____________ AL031958 46.7296 -34.7499 EX 52 -4 25 106
1958223N12340 1958 65 NA NA CLEO 1958-08-21 00:00:00 ET 46.3000 -33.0000 50 hurdat_atl main 1484 1484 O_____________ hurdat_atl AL031958 46.3000 -33.0000 EX 50 -4 26 111
1958223N12340 1958 65 NA NA CLEO 1958-08-21 03:00:00 ET 45.7848 -31.2512 main 1624 1580 P_____________ AL031958 45.7848 -31.2512 EX 45 -4 27 114
1958223N12340 1958 65 NA NA CLEO 1958-08-21 06:00:00 ET 45.2000 -29.5000 40 hurdat_atl main 1574 1486 O_____________ hurdat_atl AL031958 45.2000 -29.5000 EX 40 -4 27 115
1958223N12340 1958 65 NA NA CLEO 1958-08-21 09:00:00 ET 44.6065 -27.7144 main 1478 1352 P_____________ AL031958 44.6065 -27.7144 EX 37 -4 28 116
1958223N12340 1958 65 NA NA CLEO 1958-08-21 12:00:00 ET 44.0000 -26.0000 35 hurdat_atl main 1344 1226 O_____________ hurdat_atl AL031958 44.0000 -26.0000 EX 35 -4 27 117
1958223N12340 1958 65 NA NA CLEO 1958-08-21 15:00:00 ET 43.3842 -24.3889 main 1218 1117 P_____________ AL031958 43.3842 -24.3889 EX 35 -4 25 119
1958223N12340 1958 65 NA NA CLEO 1958-08-21 18:00:00 ET 42.8000 -23.0000 35 hurdat_atl main 1110 1036 O_____________ hurdat_atl AL031958 42.8000 -23.0000 EX 35 -4 21 121
1958223N12340 1958 65 NA NA CLEO 1958-08-21 21:00:00 ET 42.2748 -21.9139 main 1028 971 P_____________ AL031958 42.2748 -21.9139 EX 32 -4 18 124
1958223N12340 1958 65 NA NA CLEO 1958-08-22 00:00:00 ET 41.8000 -21.0000 30 hurdat_atl main 965 902 O_____________ hurdat_atl AL031958 41.8000 -21.0000 EX 30 -4 17 124
1958223N12340 1958 65 NA NA CLEO 1958-08-22 03:00:00 ET 41.3424 -20.0410 main 896 845 P_____________ AL031958 41.3424 -20.0410 EX 27 -4 16 124
1958223N12340 1958 65 NA NA CLEO 1958-08-22 06:00:00 ET 40.9000 -19.2000 25 hurdat_atl main 845 799 O_____________ hurdat_atl AL031958 40.9000 -19.2000 EX 25 -4 14 128
1958223N12340 1958 65 NA NA CLEO 1958-08-22 09:00:00 ET 40.4416 -18.5413 main 788 740 P_____________ AL031958 40.4416 -18.5413 EX 25 -4 13 135
1958223N12340 1958 65 NA NA CLEO 1958-08-22 12:00:00 ET 40.0000 -18.0000 25 hurdat_atl main 740 692 O_____________ hurdat_atl AL031958 40.0000 -18.0000 EX 25 -4 12 137
1958223N12340 1958 65 NA NA CLEO 1958-08-22 15:00:00 ET 39.5907 -17.4937 main 692 647 P_____________ AL031958 39.5907 -17.4937 EX 25 -4 11 136
1958223N12340 1958 65 NA NA CLEO 1958-08-22 18:00:00 ET 39.2000 -17.0000 25 hurdat_atl main 647 O_____________ hurdat_atl AL031958 39.2000 -17.0000 EX 25 -4 11 136

IBTrACS Databaseについて

本データベースは、米国NOAAが公開する1842年以降の世界の熱帯低気圧のベストトラックデータアーカイブInternational Best Track Archive for Climate Stewardship (IBTrACS)を、ウェブで閲覧しやすい形式に変換したものです。

最終更新日:2021-10-19